sensor_id;sensor_type;location;lat;lon;timestamp;P1;durP1;ratioP1;P2;durP2;ratioP2
77111;SDS011;66064;50.226;14.344;2023-08-30T00:01:39;6.60;;;5.38;;
77111;SDS011;66064;50.226;14.344;2023-08-30T00:04:06;5.90;;;5.30;;
77111;SDS011;66064;50.226;14.344;2023-08-30T00:06:31;6.38;;;5.72;;
77111;SDS011;66064;50.226;14.344;2023-08-30T00:08:58;6.13;;;5.53;;
77111;SDS011;66064;50.226;14.344;2023-08-30T00:11:24;6.82;;;5.50;;
77111;SDS011;66064;50.226;14.344;2023-08-30T00:14:24;6.30;;;5.60;;
77111;SDS011;66064;50.226;14.344;2023-08-30T00:16:44;5.50;;;5.00;;
77111;SDS011;66064;50.226;14.344;2023-08-30T00:19:10;5.15;;;4.65;;
77111;SDS011;66064;50.226;14.344;2023-08-30T00:21:36;6.95;;;6.20;;
77111;SDS011;66064;50.226;14.344;2023-08-30T00:24:03;7.47;;;6.78;;
77111;SDS011;66064;50.226;14.344;2023-08-30T00:26:29;6.63;;;5.55;;
77111;SDS011;66064;50.226;14.344;2023-08-30T00:28:55;5.72;;;5.28;;
77111;SDS011;66064;50.226;14.344;2023-08-30T00:31:21;6.47;;;5.13;;
77111;SDS011;66064;50.226;14.344;2023-08-30T00:33:48;6.25;;;4.90;;
77111;SDS011;66064;50.226;14.344;2023-08-30T00:36:15;5.40;;;4.90;;
77111;SDS011;66064;50.226;14.344;2023-08-30T00:38:43;5.43;;;4.60;;
77111;SDS011;66064;50.226;14.344;2023-08-30T00:41:09;6.40;;;5.80;;
77111;SDS011;66064;50.226;14.344;2023-08-30T00:43:35;5.43;;;4.68;;
77111;SDS011;66064;50.226;14.344;2023-08-30T00:46:01;5.40;;;4.60;;
77111;SDS011;66064;50.226;14.344;2023-08-30T00:48:29;6.15;;;5.65;;
77111;SDS011;66064;50.226;14.344;2023-08-30T00:50:55;5.25;;;4.75;;
77111;SDS011;66064;50.226;14.344;2023-08-30T00:53:21;5.53;;;5.03;;
77111;SDS011;66064;50.226;14.344;2023-08-30T00:55:47;5.75;;;5.13;;
77111;SDS011;66064;50.226;14.344;2023-08-30T00:58:15;6.68;;;5.20;;
77111;SDS011;66064;50.226;14.344;2023-08-30T01:00:43;7.18;;;6.60;;
77111;SDS011;66064;50.226;14.344;2023-08-30T01:03:10;5.28;;;4.78;;
77111;SDS011;66064;50.226;14.344;2023-08-30T01:05:36;5.90;;;5.32;;
77111;SDS011;66064;50.226;14.344;2023-08-30T01:08:02;5.55;;;5.05;;
77111;SDS011;66064;50.226;14.344;2023-08-30T01:10:33;4.70;;;4.18;;
77111;SDS011;66064;50.226;14.344;2023-08-30T01:13:08;5.03;;;4.63;;
77111;SDS011;66064;50.226;14.344;2023-08-30T01:15:37;5.18;;;4.68;;
77111;SDS011;66064;50.226;14.344;2023-08-30T01:18:06;5.20;;;4.57;;
77111;SDS011;66064;50.226;14.344;2023-08-30T01:20:35;5.32;;;4.82;;
77111;SDS011;66064;50.226;14.344;2023-08-30T01:23:08;4.93;;;4.50;;
77111;SDS011;66064;50.226;14.344;2023-08-30T01:26:08;5.25;;;4.80;;
77111;SDS011;66064;50.226;14.344;2023-08-30T01:28:40;4.78;;;3.60;;
77111;SDS011;66064;50.226;14.344;2023-08-30T01:31:09;5.95;;;5.45;;
77111;SDS011;66064;50.226;14.344;2023-08-30T01:33:38;3.67;;;3.28;;
77111;SDS011;66064;50.226;14.344;2023-08-30T01:36:05;4.65;;;4.25;;
77111;SDS011;66064;50.226;14.344;2023-08-30T01:38:32;5.03;;;4.63;;
77111;SDS011;66064;50.226;14.344;2023-08-30T01:40:59;4.43;;;4.03;;
77111;SDS011;66064;50.226;14.344;2023-08-30T01:43:28;6.03;;;5.63;;
77111;SDS011;66064;50.226;14.344;2023-08-30T01:45:56;3.60;;;3.30;;
77111;SDS011;66064;50.226;14.344;2023-08-30T01:48:26;3.65;;;3.35;;
77111;SDS011;66064;50.226;14.344;2023-08-30T01:50:54;4.50;;;3.63;;
77111;SDS011;66064;50.226;14.344;2023-08-30T01:53:24;3.30;;;3.00;;
77111;SDS011;66064;50.226;14.344;2023-08-30T01:55:52;3.95;;;3.35;;
77111;SDS011;66064;50.226;14.344;2023-08-30T01:58:18;3.42;;;3.08;;
77111;SDS011;66064;50.226;14.344;2023-08-30T02:00:45;4.38;;;4.07;;
77111;SDS011;66064;50.226;14.344;2023-08-30T02:03:12;5.38;;;4.97;;
77111;SDS011;66064;50.226;14.344;2023-08-30T02:08:35;4.35;;;3.95;;
77111;SDS011;66064;50.226;14.344;2023-08-30T02:11:25;5.10;;;4.10;;
77111;SDS011;66064;50.226;14.344;2023-08-30T02:13:54;5.70;;;4.95;;
77111;SDS011;66064;50.226;14.344;2023-08-30T02:16:23;3.88;;;3.25;;
77111;SDS011;66064;50.226;14.344;2023-08-30T02:18:53;3.70;;;3.38;;
77111;SDS011;66064;50.226;14.344;2023-08-30T02:21:20;4.18;;;3.80;;
77111;SDS011;66064;50.226;14.344;2023-08-30T02:23:50;5.70;;;5.20;;
77111;SDS011;66064;50.226;14.344;2023-08-30T02:26:21;6.28;;;5.78;;
77111;SDS011;66064;50.226;14.344;2023-08-30T02:28:47;3.35;;;3.05;;
77111;SDS011;66064;50.226;14.344;2023-08-30T02:33:44;3.83;;;3.45;;
77111;SDS011;66064;50.226;14.344;2023-08-30T02:36:10;3.97;;;3.67;;
77111;SDS011;66064;50.226;14.344;2023-08-30T02:38:37;3.72;;;3.42;;
77111;SDS011;66064;50.226;14.344;2023-08-30T02:41:03;3.13;;;2.83;;
77111;SDS011;66064;50.226;14.344;2023-08-30T02:43:29;4.43;;;3.30;;
77111;SDS011;66064;50.226;14.344;2023-08-30T02:45:55;3.80;;;3.47;;
77111;SDS011;66064;50.226;14.344;2023-08-30T02:48:22;4.18;;;3.85;;
77111;SDS011;66064;50.226;14.344;2023-08-30T02:50:48;5.82;;;3.70;;
77111;SDS011;66064;50.226;14.344;2023-08-30T02:53:14;4.15;;;3.75;;
77111;SDS011;66064;50.226;14.344;2023-08-30T02:55:40;3.70;;;3.35;;
77111;SDS011;66064;50.226;14.344;2023-08-30T02:58:07;3.83;;;3.42;;
77111;SDS011;66064;50.226;14.344;2023-08-30T03:00:32;3.70;;;3.40;;
77111;SDS011;66064;50.226;14.344;2023-08-30T03:03:00;4.07;;;3.67;;
77111;SDS011;66064;50.226;14.344;2023-08-30T03:05:26;5.18;;;3.67;;
77111;SDS011;66064;50.226;14.344;2023-08-30T03:07:53;5.00;;;4.60;;
77111;SDS011;66064;50.226;14.344;2023-08-30T03:10:19;4.10;;;3.78;;
77111;SDS011;66064;50.226;14.344;2023-08-30T03:12:45;4.20;;;3.80;;
77111;SDS011;66064;50.226;14.344;2023-08-30T03:15:12;3.75;;;3.28;;
77111;SDS011;66064;50.226;14.344;2023-08-30T03:17:39;3.88;;;3.47;;
77111;SDS011;66064;50.226;14.344;2023-08-30T03:20:04;3.65;;;3.35;;
77111;SDS011;66064;50.226;14.344;2023-08-30T03:22:33;4.10;;;3.70;;
77111;SDS011;66064;50.226;14.344;2023-08-30T03:25:00;4.63;;;4.22;;
77111;SDS011;66064;50.226;14.344;2023-08-30T03:27:29;3.63;;;3.33;;
77111;SDS011;66064;50.226;14.344;2023-08-30T03:29:55;4.07;;;3.40;;
77111;SDS011;66064;50.226;14.344;2023-08-30T03:32:23;5.20;;;4.80;;
77111;SDS011;66064;50.226;14.344;2023-08-30T03:34:49;4.70;;;4.30;;
77111;SDS011;66064;50.226;14.344;2023-08-30T03:37:16;6.30;;;4.75;;
77111;SDS011;66064;50.226;14.344;2023-08-30T03:39:43;4.57;;;4.18;;
77111;SDS011;66064;50.226;14.344;2023-08-30T03:42:09;5.18;;;4.68;;
77111;SDS011;66064;50.226;14.344;2023-08-30T03:44:35;6.72;;;6.22;;
77111;SDS011;66064;50.226;14.344;2023-08-30T03:47:03;5.68;;;3.92;;
77111;SDS011;66064;50.226;14.344;2023-08-30T03:49:29;5.25;;;4.38;;
77111;SDS011;66064;50.226;14.344;2023-08-30T03:51:56;4.63;;;4.30;;
77111;SDS011;66064;50.226;14.344;2023-08-30T03:54:22;3.97;;;3.58;;
77111;SDS011;66064;50.226;14.344;2023-08-30T03:56:49;6.07;;;5.30;;
77111;SDS011;66064;50.226;14.344;2023-08-30T03:59:16;4.43;;;4.03;;
77111;SDS011;66064;50.226;14.344;2023-08-30T04:01:42;3.92;;;3.58;;
77111;SDS011;66064;50.226;14.344;2023-08-30T04:04:09;5.03;;;3.60;;
77111;SDS011;66064;50.226;14.344;2023-08-30T04:06:35;4.40;;;4.00;;
77111;SDS011;66064;50.226;14.344;2023-08-30T04:09:01;4.40;;;4.00;;
77111;SDS011;66064;50.226;14.344;2023-08-30T04:11:28;4.88;;;4.40;;
77111;SDS011;66064;50.226;14.344;2023-08-30T04:13:55;5.93;;;4.00;;
77111;SDS011;66064;50.226;14.344;2023-08-30T04:16:22;5.03;;;4.60;;
77111;SDS011;66064;50.226;14.344;2023-08-30T04:18:49;3.90;;;3.60;;
77111;SDS011;66064;50.226;14.344;2023-08-30T04:21:16;4.00;;;3.67;;
77111;SDS011;66064;50.226;14.344;2023-08-30T04:23:42;3.70;;;3.40;;
77111;SDS011;66064;50.226;14.344;2023-08-30T04:26:08;4.05;;;3.70;;
77111;SDS011;66064;50.226;14.344;2023-08-30T04:28:34;4.72;;;4.22;;
77111;SDS011;66064;50.226;14.344;2023-08-30T04:31:00;4.40;;;4.03;;
77111;SDS011;66064;50.226;14.344;2023-08-30T04:33:26;5.90;;;5.50;;
77111;SDS011;66064;50.226;14.344;2023-08-30T04:35:53;3.92;;;3.53;;
77111;SDS011;66064;50.226;14.344;2023-08-30T04:38:21;4.30;;;3.90;;
77111;SDS011;66064;50.226;14.344;2023-08-30T04:40:48;4.65;;;4.25;;
77111;SDS011;66064;50.226;14.344;2023-08-30T04:43:14;5.10;;;4.60;;
77111;SDS011;66064;50.226;14.344;2023-08-30T04:45:40;5.47;;;4.97;;
77111;SDS011;66064;50.226;14.344;2023-08-30T04:48:06;4.90;;;4.40;;
77111;SDS011;66064;50.226;14.344;2023-08-30T04:50:33;7.07;;;4.75;;
77111;SDS011;66064;50.226;14.344;2023-08-30T04:52:59;5.28;;;3.75;;
77111;SDS011;66064;50.226;14.344;2023-08-30T04:55:25;4.95;;;4.45;;
77111;SDS011;66064;50.226;14.344;2023-08-30T04:57:53;6.63;;;4.70;;
77111;SDS011;66064;50.226;14.344;2023-08-30T05:00:20;6.72;;;4.75;;
77111;SDS011;66064;50.226;14.344;2023-08-30T05:02:46;5.63;;;5.10;;
77111;SDS011;66064;50.226;14.344;2023-08-30T05:05:13;5.30;;;4.80;;
77111;SDS011;66064;50.226;14.344;2023-08-30T05:07:39;5.18;;;4.75;;
77111;SDS011;66064;50.226;14.344;2023-08-30T05:10:06;7.68;;;5.72;;
77111;SDS011;66064;50.226;14.344;2023-08-30T05:12:33;7.63;;;4.68;;
77111;SDS011;66064;50.226;14.344;2023-08-30T05:15:01;5.80;;;5.20;;
77111;SDS011;66064;50.226;14.344;2023-08-30T05:17:29;5.35;;;4.95;;
77111;SDS011;66064;50.226;14.344;2023-08-30T05:19:56;5.72;;;4.68;;
77111;SDS011;66064;50.226;14.344;2023-08-30T05:22:22;7.60;;;5.85;;
77111;SDS011;66064;50.226;14.344;2023-08-30T05:24:48;6.13;;;4.57;;
77111;SDS011;66064;50.226;14.344;2023-08-30T05:27:14;7.70;;;4.85;;
77111;SDS011;66064;50.226;14.344;2023-08-30T05:29:50;4.72;;;4.22;;
77111;SDS011;66064;50.226;14.344;2023-08-30T05:32:16;5.20;;;4.70;;
77111;SDS011;66064;50.226;14.344;2023-08-30T05:34:48;5.68;;;5.07;;
77111;SDS011;66064;50.226;14.344;2023-08-30T05:37:14;6.22;;;5.72;;
77111;SDS011;66064;50.226;14.344;2023-08-30T05:39:40;4.90;;;4.40;;
77111;SDS011;66064;50.226;14.344;2023-08-30T05:42:06;5.85;;;4.45;;
77111;SDS011;66064;50.226;14.344;2023-08-30T05:44:32;4.40;;;4.00;;
77111;SDS011;66064;50.226;14.344;2023-08-30T05:46:58;4.80;;;4.30;;
77111;SDS011;66064;50.226;14.344;2023-08-30T05:49:25;5.65;;;5.25;;
77111;SDS011;66064;50.226;14.344;2023-08-30T05:51:52;5.70;;;4.88;;
77111;SDS011;66064;50.226;14.344;2023-08-30T05:54:24;5.63;;;5.10;;
77111;SDS011;66064;50.226;14.344;2023-08-30T05:56:52;5.80;;;4.93;;
77111;SDS011;66064;50.226;14.344;2023-08-30T05:59:21;4.53;;;4.13;;
77111;SDS011;66064;50.226;14.344;2023-08-30T06:01:47;5.55;;;5.05;;
77111;SDS011;66064;50.226;14.344;2023-08-30T06:04:13;10.70;;;4.38;;
77111;SDS011;66064;50.226;14.344;2023-08-30T06:06:39;5.93;;;4.55;;
77111;SDS011;66064;50.226;14.344;2023-08-30T06:09:05;5.28;;;4.70;;
77111;SDS011;66064;50.226;14.344;2023-08-30T06:11:32;6.00;;;4.70;;
77111;SDS011;66064;50.226;14.344;2023-08-30T06:13:59;5.75;;;4.55;;
77111;SDS011;66064;50.226;14.344;2023-08-30T06:16:25;5.32;;;4.90;;
77111;SDS011;66064;50.226;14.344;2023-08-30T06:18:51;5.45;;;4.63;;
77111;SDS011;66064;50.226;14.344;2023-08-30T06:21:19;6.85;;;4.97;;
77111;SDS011;66064;50.226;14.344;2023-08-30T06:23:45;5.72;;;5.15;;
77111;SDS011;66064;50.226;14.344;2023-08-30T06:26:11;5.28;;;4.78;;
77111;SDS011;66064;50.226;14.344;2023-08-30T06:28:37;6.10;;;5.55;;
77111;SDS011;66064;50.226;14.344;2023-08-30T06:31:03;5.88;;;4.97;;
77111;SDS011;66064;50.226;14.344;2023-08-30T06:33:30;6.78;;;6.18;;
77111;SDS011;66064;50.226;14.344;2023-08-30T06:35:56;5.75;;;5.15;;
77111;SDS011;66064;50.226;14.344;2023-08-30T06:38:22;5.32;;;4.82;;
77111;SDS011;66064;50.226;14.344;2023-08-30T06:40:48;6.50;;;5.70;;
77111;SDS011;66064;50.226;14.344;2023-08-30T06:43:15;6.40;;;5.53;;
77111;SDS011;66064;50.226;14.344;2023-08-30T06:45:41;5.90;;;5.32;;
77111;SDS011;66064;50.226;14.344;2023-08-30T06:48:09;5.47;;;4.97;;
77111;SDS011;66064;50.226;14.344;2023-08-30T06:50:35;6.22;;;5.63;;
77111;SDS011;66064;50.226;14.344;2023-08-30T06:53:02;5.47;;;4.78;;
77111;SDS011;66064;50.226;14.344;2023-08-30T06:55:29;5.78;;;5.28;;
77111;SDS011;66064;50.226;14.344;2023-08-30T06:57:55;4.88;;;4.45;;
77111;SDS011;66064;50.226;14.344;2023-08-30T07:00:22;5.30;;;4.80;;
77111;SDS011;66064;50.226;14.344;2023-08-30T07:02:48;5.78;;;5.18;;
77111;SDS011;66064;50.226;14.344;2023-08-30T07:05:14;5.80;;;5.22;;
77111;SDS011;66064;50.226;14.344;2023-08-30T07:07:42;6.47;;;5.85;;
77111;SDS011;66064;50.226;14.344;2023-08-30T07:10:09;5.63;;;5.13;;
77111;SDS011;66064;50.226;14.344;2023-08-30T07:12:35;7.25;;;5.93;;
77111;SDS011;66064;50.226;14.344;2023-08-30T07:15:02;5.95;;;4.93;;
77111;SDS011;66064;50.226;14.344;2023-08-30T07:17:29;6.05;;;5.45;;
77111;SDS011;66064;50.226;14.344;2023-08-30T07:19:56;9.13;;;5.72;;
77111;SDS011;66064;50.226;14.344;2023-08-30T07:22:23;6.03;;;5.43;;
77111;SDS011;66064;50.226;14.344;2023-08-30T07:24:55;6.53;;;5.88;;
77111;SDS011;66064;50.226;14.344;2023-08-30T07:27:21;7.45;;;6.63;;
77111;SDS011;66064;50.226;14.344;2023-08-30T07:29:54;8.05;;;6.72;;
77111;SDS011;66064;50.226;14.344;2023-08-30T07:32:20;6.35;;;5.72;;
77111;SDS011;66064;50.226;14.344;2023-08-30T07:34:46;6.35;;;5.65;;
77111;SDS011;66064;50.226;14.344;2023-08-30T07:37:19;6.65;;;5.97;;
77111;SDS011;66064;50.226;14.344;2023-08-30T07:39:46;6.22;;;5.63;;
77111;SDS011;66064;50.226;14.344;2023-08-30T07:42:13;6.28;;;5.68;;
77111;SDS011;66064;50.226;14.344;2023-08-30T07:44:41;6.30;;;5.70;;
77111;SDS011;66064;50.226;14.344;2023-08-30T07:47:08;7.93;;;5.93;;
77111;SDS011;66064;50.226;14.344;2023-08-30T07:49:34;7.03;;;6.40;;
77111;SDS011;66064;50.226;14.344;2023-08-30T07:52:02;6.72;;;5.40;;
77111;SDS011;66064;50.226;14.344;2023-08-30T07:54:28;6.55;;;5.57;;
77111;SDS011;66064;50.226;14.344;2023-08-30T07:56:58;8.30;;;5.80;;
77111;SDS011;66064;50.226;14.344;2023-08-30T07:59:25;5.68;;;5.05;;
77111;SDS011;66064;50.226;14.344;2023-08-30T08:01:51;9.25;;;5.13;;
77111;SDS011;66064;50.226;14.344;2023-08-30T08:04:17;5.47;;;4.93;;
77111;SDS011;66064;50.226;14.344;2023-08-30T08:06:43;6.82;;;5.05;;
77111;SDS011;66064;50.226;14.344;2023-08-30T08:09:09;7.68;;;4.85;;
77111;SDS011;66064;50.226;14.344;2023-08-30T08:11:37;5.68;;;5.18;;
77111;SDS011;66064;50.226;14.344;2023-08-30T08:14:03;8.43;;;4.75;;
77111;SDS011;66064;50.226;14.344;2023-08-30T08:16:30;5.15;;;4.65;;
77111;SDS011;66064;50.226;14.344;2023-08-30T08:18:56;6.63;;;5.07;;
77111;SDS011;66064;50.226;14.344;2023-08-30T08:21:25;5.55;;;4.95;;
77111;SDS011;66064;50.226;14.344;2023-08-30T08:23:52;5.55;;;4.80;;
77111;SDS011;66064;50.226;14.344;2023-08-30T08:26:18;5.25;;;4.75;;
77111;SDS011;66064;50.226;14.344;2023-08-30T08:28:44;5.63;;;5.03;;
77111;SDS011;66064;50.226;14.344;2023-08-30T08:31:11;6.20;;;5.57;;
77111;SDS011;66064;50.226;14.344;2023-08-30T08:33:37;8.00;;;5.47;;
77111;SDS011;66064;50.226;14.344;2023-08-30T08:36:03;6.00;;;5.38;;
77111;SDS011;66064;50.226;14.344;2023-08-30T08:38:30;7.90;;;5.32;;
77111;SDS011;66064;50.226;14.344;2023-08-30T08:41:03;6.70;;;5.90;;
77111;SDS011;66064;50.226;14.344;2023-08-30T08:43:34;6.93;;;5.95;;
77111;SDS011;66064;50.226;14.344;2023-08-30T08:46:03;10.32;;;5.93;;
77111;SDS011;66064;50.226;14.344;2023-08-30T08:48:33;6.90;;;5.65;;
77111;SDS011;66064;50.226;14.344;2023-08-30T08:51:05;6.75;;;5.65;;
77111;SDS011;66064;50.226;14.344;2023-08-30T08:53:32;8.52;;;5.20;;
77111;SDS011;66064;50.226;14.344;2023-08-30T08:55:58;6.05;;;5.45;;
77111;SDS011;66064;50.226;14.344;2023-08-30T09:00:54;7.30;;;6.13;;
77111;SDS011;66064;50.226;14.344;2023-08-30T09:03:21;7.10;;;5.85;;
77111;SDS011;66064;50.226;14.344;2023-08-30T09:05:48;7.68;;;6.22;;
77111;SDS011;66064;50.226;14.344;2023-08-30T09:08:16;8.10;;;5.95;;
77111;SDS011;66064;50.226;14.344;2023-08-30T09:10:43;7.00;;;5.50;;
77111;SDS011;66064;50.226;14.344;2023-08-30T09:13:09;7.32;;;5.30;;
77111;SDS011;66064;50.226;14.344;2023-08-30T09:15:35;6.22;;;5.05;;
77111;SDS011;66064;50.226;14.344;2023-08-30T09:18:04;7.20;;;5.45;;
77111;SDS011;66064;50.226;14.344;2023-08-30T09:20:44;6.25;;;5.63;;
77111;SDS011;66064;50.226;14.344;2023-08-30T09:23:16;5.70;;;5.18;;
77111;SDS011;66064;50.226;14.344;2023-08-30T09:25:45;6.57;;;5.40;;
77111;SDS011;66064;50.226;14.344;2023-08-30T09:28:12;5.35;;;4.65;;
77111;SDS011;66064;50.226;14.344;2023-08-30T09:30:38;5.40;;;4.90;;
77111;SDS011;66064;50.226;14.344;2023-08-30T09:33:06;5.45;;;4.95;;
77111;SDS011;66064;50.226;14.344;2023-08-30T09:35:34;6.57;;;5.28;;
77111;SDS011;66064;50.226;14.344;2023-08-30T09:38:15;8.73;;;5.00;;
77111;SDS011;66064;50.226;14.344;2023-08-30T09:40:43;7.00;;;4.85;;
77111;SDS011;66064;50.226;14.344;2023-08-30T09:43:10;5.55;;;5.05;;
77111;SDS011;66064;50.226;14.344;2023-08-30T09:45:37;5.82;;;5.07;;
77111;SDS011;66064;50.226;14.344;2023-08-30T09:48:03;5.68;;;4.45;;
77111;SDS011;66064;50.226;14.344;2023-08-30T09:50:34;5.28;;;4.72;;
77111;SDS011;66064;50.226;14.344;2023-08-30T09:53:08;5.30;;;4.80;;
77111;SDS011;66064;50.226;14.344;2023-08-30T09:55:38;5.80;;;5.30;;
77111;SDS011;66064;50.226;14.344;2023-08-30T09:58:06;5.85;;;5.15;;
77111;SDS011;66064;50.226;14.344;2023-08-30T10:00:33;5.25;;;4.70;;
77111;SDS011;66064;50.226;14.344;2023-08-30T10:03:00;5.18;;;4.68;;
77111;SDS011;66064;50.226;14.344;2023-08-30T10:05:33;4.97;;;4.40;;
77111;SDS011;66064;50.226;14.344;2023-08-30T10:08:03;5.05;;;3.72;;
77111;SDS011;66064;50.226;14.344;2023-08-30T10:10:32;4.60;;;4.07;;
77111;SDS011;66064;50.226;14.344;2023-08-30T10:12:59;5.28;;;4.35;;
77111;SDS011;66064;50.226;14.344;2023-08-30T10:15:27;5.75;;;4.85;;
77111;SDS011;66064;50.226;14.344;2023-08-30T10:17:58;5.32;;;4.80;;
77111;SDS011;66064;50.226;14.344;2023-08-30T10:20:28;5.40;;;4.90;;
77111;SDS011;66064;50.226;14.344;2023-08-30T10:22:56;5.88;;;5.38;;
77111;SDS011;66064;50.226;14.344;2023-08-30T10:25:26;6.75;;;4.07;;
77111;SDS011;66064;50.226;14.344;2023-08-30T10:27:55;5.05;;;4.07;;
77111;SDS011;66064;50.226;14.344;2023-08-30T10:30:22;4.55;;;4.13;;
77111;SDS011;66064;50.226;14.344;2023-08-30T10:32:50;5.57;;;4.63;;
77111;SDS011;66064;50.226;14.344;2023-08-30T10:35:17;4.68;;;4.20;;
77111;SDS011;66064;50.226;14.344;2023-08-30T10:37:55;6.43;;;4.13;;
77111;SDS011;66064;50.226;14.344;2023-08-30T10:40:30;5.68;;;3.97;;
77111;SDS011;66064;50.226;14.344;2023-08-30T10:43:02;4.65;;;4.15;;
77111;SDS011;66064;50.226;14.344;2023-08-30T10:45:29;5.35;;;4.82;;
77111;SDS011;66064;50.226;14.344;2023-08-30T10:47:56;4.90;;;4.10;;
77111;SDS011;66064;50.226;14.344;2023-08-30T10:52:58;8.45;;;4.70;;
77111;SDS011;66064;50.226;14.344;2023-08-30T10:55:26;5.45;;;4.95;;
77111;SDS011;66064;50.226;14.344;2023-08-30T10:58:02;7.15;;;4.18;;
77111;SDS011;66064;50.226;14.344;2023-08-30T11:00:30;6.00;;;4.82;;
77111;SDS011;66064;50.226;14.344;2023-08-30T11:02:58;5.28;;;4.78;;
77111;SDS011;66064;50.226;14.344;2023-08-30T11:07:57;5.20;;;4.30;;
77111;SDS011;66064;50.226;14.344;2023-08-30T11:10:23;5.28;;;4.68;;
77111;SDS011;66064;50.226;14.344;2023-08-30T11:12:49;5.50;;;4.57;;
77111;SDS011;66064;50.226;14.344;2023-08-30T11:15:22;5.57;;;3.60;;
77111;SDS011;66064;50.226;14.344;2023-08-30T11:17:50;5.38;;;4.03;;
77111;SDS011;66064;50.226;14.344;2023-08-30T11:22:51;5.00;;;4.35;;
77111;SDS011;66064;50.226;14.344;2023-08-30T11:25:19;7.05;;;4.22;;
77111;SDS011;66064;50.226;14.344;2023-08-30T11:27:45;7.60;;;4.68;;
77111;SDS011;66064;50.226;14.344;2023-08-30T11:30:11;5.55;;;4.82;;
77111;SDS011;66064;50.226;14.344;2023-08-30T11:32:41;5.82;;;5.32;;
77111;SDS011;66064;50.226;14.344;2023-08-30T11:35:11;4.97;;;4.22;;
77111;SDS011;66064;50.226;14.344;2023-08-30T11:37:39;5.05;;;4.55;;
77111;SDS011;66064;50.226;14.344;2023-08-30T11:40:06;4.18;;;3.67;;
77111;SDS011;66064;50.226;14.344;2023-08-30T11:42:34;4.60;;;3.72;;
77111;SDS011;66064;50.226;14.344;2023-08-30T11:45:00;5.68;;;3.90;;
77111;SDS011;66064;50.226;14.344;2023-08-30T11:47:26;5.78;;;4.20;;
77111;SDS011;66064;50.226;14.344;2023-08-30T11:49:56;6.88;;;4.80;;
77111;SDS011;66064;50.226;14.344;2023-08-30T11:52:24;5.50;;;4.22;;
77111;SDS011;66064;50.226;14.344;2023-08-30T11:54:51;5.38;;;3.95;;
77111;SDS011;66064;50.226;14.344;2023-08-30T11:57:18;5.13;;;4.50;;
77111;SDS011;66064;50.226;14.344;2023-08-30T11:59:45;6.70;;;4.15;;
77111;SDS011;66064;50.226;14.344;2023-08-30T12:02:14;5.70;;;4.00;;
77111;SDS011;66064;50.226;14.344;2023-08-30T12:04:42;4.65;;;3.78;;
77111;SDS011;66064;50.226;14.344;2023-08-30T12:07:20;4.65;;;3.65;;
77111;SDS011;66064;50.226;14.344;2023-08-30T12:09:50;5.63;;;4.32;;
77111;SDS011;66064;50.226;14.344;2023-08-30T12:12:16;4.82;;;3.92;;
77111;SDS011;66064;50.226;14.344;2023-08-30T12:14:43;5.38;;;3.47;;
77111;SDS011;66064;50.226;14.344;2023-08-30T12:17:09;5.97;;;4.05;;
77111;SDS011;66064;50.226;14.344;2023-08-30T12:19:38;5.00;;;3.97;;
77111;SDS011;66064;50.226;14.344;2023-08-30T12:22:06;5.30;;;4.03;;
77111;SDS011;66064;50.226;14.344;2023-08-30T12:24:45;4.35;;;3.80;;
77111;SDS011;66064;50.226;14.344;2023-08-30T12:27:12;5.38;;;4.05;;
77111;SDS011;66064;50.226;14.344;2023-08-30T12:29:39;4.65;;;3.67;;
77111;SDS011;66064;50.226;14.344;2023-08-30T12:32:06;8.30;;;3.63;;
77111;SDS011;66064;50.226;14.344;2023-08-30T12:34:33;7.22;;;4.47;;
77111;SDS011;66064;50.226;14.344;2023-08-30T12:36:59;5.15;;;4.13;;
77111;SDS011;66064;50.226;14.344;2023-08-30T12:39:27;5.18;;;4.20;;
77111;SDS011;66064;50.226;14.344;2023-08-30T12:41:53;6.13;;;4.40;;
77111;SDS011;66064;50.226;14.344;2023-08-30T12:44:20;5.35;;;4.18;;
77111;SDS011;66064;50.226;14.344;2023-08-30T12:46:45;5.50;;;4.93;;
77111;SDS011;66064;50.226;14.344;2023-08-30T12:49:13;5.88;;;4.70;;
77111;SDS011;66064;50.226;14.344;2023-08-30T12:51:39;5.75;;;4.57;;
77111;SDS011;66064;50.226;14.344;2023-08-30T12:54:05;8.00;;;5.10;;
77111;SDS011;66064;50.226;14.344;2023-08-30T12:56:31;4.97;;;4.47;;
77111;SDS011;66064;50.226;14.344;2023-08-30T12:58:58;6.15;;;4.65;;
77111;SDS011;66064;50.226;14.344;2023-08-30T13:01:24;6.82;;;5.28;;
77111;SDS011;66064;50.226;14.344;2023-08-30T13:03:50;6.80;;;5.13;;
77111;SDS011;66064;50.226;14.344;2023-08-30T13:06:16;5.45;;;4.90;;
77111;SDS011;66064;50.226;14.344;2023-08-30T13:08:42;10.35;;;4.80;;
77111;SDS011;66064;50.226;14.344;2023-08-30T13:11:09;6.40;;;5.10;;
77111;SDS011;66064;50.226;14.344;2023-08-30T13:13:36;6.13;;;5.40;;
77111;SDS011;66064;50.226;14.344;2023-08-30T13:16:03;6.97;;;5.53;;
77111;SDS011;66064;50.226;14.344;2023-08-30T13:18:29;7.38;;;5.75;;
77111;SDS011;66064;50.226;14.344;2023-08-30T13:20:55;7.13;;;5.72;;
77111;SDS011;66064;50.226;14.344;2023-08-30T13:23:21;5.95;;;5.35;;
77111;SDS011;66064;50.226;14.344;2023-08-30T13:25:48;7.40;;;5.40;;
77111;SDS011;66064;50.226;14.344;2023-08-30T13:28:17;7.53;;;5.53;;
77111;SDS011;66064;50.226;14.344;2023-08-30T13:30:44;6.72;;;5.22;;
77111;SDS011;66064;50.226;14.344;2023-08-30T13:33:12;5.88;;;5.35;;
77111;SDS011;66064;50.226;14.344;2023-08-30T13:35:39;6.68;;;5.53;;
77111;SDS011;66064;50.226;14.344;2023-08-30T13:38:05;6.57;;;5.65;;
77111;SDS011;66064;50.226;14.344;2023-08-30T13:40:32;7.38;;;5.90;;
77111;SDS011;66064;50.226;14.344;2023-08-30T13:43:00;6.13;;;5.53;;
77111;SDS011;66064;50.226;14.344;2023-08-30T13:45:26;7.03;;;6.05;;
77111;SDS011;66064;50.226;14.344;2023-08-30T13:47:53;6.68;;;6.00;;
77111;SDS011;66064;50.226;14.344;2023-08-30T13:50:21;6.93;;;5.82;;
77111;SDS011;66064;50.226;14.344;2023-08-30T13:52:47;6.43;;;5.82;;
77111;SDS011;66064;50.226;14.344;2023-08-30T13:55:13;8.57;;;7.68;;
77111;SDS011;66064;50.226;14.344;2023-08-30T13:57:40;7.35;;;6.22;;
77111;SDS011;66064;50.226;14.344;2023-08-30T14:00:06;6.97;;;6.18;;
77111;SDS011;66064;50.226;14.344;2023-08-30T14:02:36;7.50;;;6.07;;
77111;SDS011;66064;50.226;14.344;2023-08-30T14:05:01;7.57;;;6.82;;
77111;SDS011;66064;50.226;14.344;2023-08-30T14:07:28;8.30;;;6.20;;
77111;SDS011;66064;50.226;14.344;2023-08-30T14:09:55;7.07;;;6.38;;
77111;SDS011;66064;50.226;14.344;2023-08-30T14:12:22;7.95;;;7.20;;
77111;SDS011;66064;50.226;14.344;2023-08-30T14:14:49;8.40;;;6.35;;
77111;SDS011;66064;50.226;14.344;2023-08-30T14:17:15;8.70;;;6.97;;
77111;SDS011;66064;50.226;14.344;2023-08-30T14:19:41;8.15;;;6.93;;
77111;SDS011;66064;50.226;14.344;2023-08-30T14:22:07;7.88;;;6.97;;
77111;SDS011;66064;50.226;14.344;2023-08-30T14:24:34;7.57;;;6.40;;
77111;SDS011;66064;50.226;14.344;2023-08-30T14:27:01;8.25;;;6.55;;
77111;SDS011;66064;50.226;14.344;2023-08-30T14:29:26;6.88;;;5.68;;
77111;SDS011;66064;50.226;14.344;2023-08-30T14:31:53;9.05;;;6.93;;
77111;SDS011;66064;50.226;14.344;2023-08-30T14:34:22;7.95;;;7.15;;
77111;SDS011;66064;50.226;14.344;2023-08-30T14:36:49;9.32;;;7.18;;
77111;SDS011;66064;50.226;14.344;2023-08-30T14:39:15;6.80;;;5.75;;
77111;SDS011;66064;50.226;14.344;2023-08-30T14:41:43;7.28;;;6.45;;
77111;SDS011;66064;50.226;14.344;2023-08-30T14:44:09;8.57;;;6.57;;
77111;SDS011;66064;50.226;14.344;2023-08-30T14:46:38;6.80;;;6.10;;
77111;SDS011;66064;50.226;14.344;2023-08-30T14:49:04;6.68;;;6.07;;
77111;SDS011;66064;50.226;14.344;2023-08-30T14:51:31;7.40;;;6.65;;